createdAt,value
2018-06-03T00:04:12.976Z,99.90
2018-06-03T00:08:47.266Z,99.90
2018-06-03T00:13:21.607Z,99.90
2018-06-03T00:17:55.970Z,99.90
2018-06-03T00:22:32.249Z,99.90
2018-06-03T00:27:06.674Z,99.90
2018-06-03T00:31:41.229Z,99.90
2018-06-03T00:36:26.726Z,99.90
2018-06-03T00:41:01.034Z,99.90
2018-06-03T00:45:35.494Z,99.90
2018-06-03T00:50:09.934Z,99.90
2018-06-03T00:54:44.418Z,99.90
2018-06-03T00:59:19.090Z,99.90
2018-06-03T01:03:54.131Z,99.90
2018-06-03T01:08:28.674Z,99.90
2018-06-03T01:13:03.318Z,99.90
2018-06-03T01:17:38.226Z,99.90
2018-06-03T01:22:12.671Z,99.90
2018-06-03T01:26:46.884Z,99.90
2018-06-03T01:31:21.448Z,99.90
2018-06-03T01:35:55.998Z,99.90
2018-06-03T01:40:30.758Z,99.90
2018-06-03T01:45:05.477Z,99.90
2018-06-03T01:49:39.894Z,99.90
2018-06-03T01:54:14.412Z,99.90
2018-06-03T01:58:49.693Z,99.90
2018-06-03T02:03:24.354Z,99.90
2018-06-03T02:07:58.794Z,99.90
2018-06-03T02:12:33.245Z,99.90
2018-06-03T02:17:07.755Z,99.90
2018-06-03T02:21:42.152Z,99.90
2018-06-03T02:26:16.669Z,99.90
2018-06-03T02:30:51.293Z,99.90
2018-06-03T02:35:25.668Z,99.90
2018-06-03T02:40:00.455Z,99.90
2018-06-03T02:44:35.010Z,99.90
2018-06-03T02:49:09.402Z,99.90
2018-06-03T02:53:43.753Z,99.90
2018-06-03T02:58:18.192Z,99.90
2018-06-03T03:02:52.695Z,99.90
2018-06-03T03:07:27.169Z,99.90
2018-06-03T03:12:01.683Z,99.90
2018-06-03T03:16:36.038Z,99.90
2018-06-03T03:21:10.346Z,99.90
2018-06-03T03:25:44.675Z,99.90
2018-06-03T03:30:19.538Z,99.90
2018-06-03T03:34:54.165Z,99.90
2018-06-03T03:39:28.650Z,99.90
2018-06-03T03:44:02.862Z,99.90
2018-06-03T03:48:37.178Z,99.90
2018-06-03T03:53:11.374Z,99.90
2018-06-03T03:57:45.595Z,99.90
2018-06-03T04:06:53.886Z,99.90
2018-06-03T04:11:28.323Z,99.90
2018-06-03T04:16:02.862Z,99.90
2018-06-03T04:20:37.208Z,99.90
2018-06-03T04:25:11.726Z,99.90
2018-06-03T04:29:46.007Z,99.90
2018-06-03T04:34:22.824Z,99.90
2018-06-03T04:38:57.422Z,99.90
2018-06-03T04:43:31.743Z,99.90
2018-06-03T04:48:06.262Z,99.90
2018-06-03T04:52:40.635Z,99.90
2018-06-03T04:57:15.114Z,99.90
2018-06-03T05:01:49.565Z,99.90
2018-06-03T05:06:23.918Z,99.90
2018-06-03T05:10:58.505Z,99.90
2018-06-03T05:15:32.747Z,99.90
2018-06-03T05:20:07.046Z,99.90
2018-06-03T05:24:41.478Z,99.90
2018-06-03T05:29:15.679Z,99.90
2018-06-03T05:33:50.026Z,99.90
2018-06-03T05:38:24.496Z,99.90
2018-06-03T05:42:58.887Z,99.90
2018-06-03T05:47:33.138Z,99.90
2018-06-03T05:52:07.546Z,99.90
2018-06-03T05:56:41.909Z,99.90
2018-06-03T06:01:16.641Z,99.90
2018-06-03T06:05:50.850Z,99.90
2018-06-03T06:10:25.190Z,99.90
2018-06-03T06:14:59.808Z,99.90
2018-06-03T06:24:08.170Z,99.90
2018-06-03T06:28:42.631Z,99.90
2018-06-03T06:33:16.923Z,99.90
2018-06-03T06:37:51.121Z,99.90
2018-06-03T06:42:25.685Z,99.90
2018-06-03T06:47:00.047Z,99.90
2018-06-03T06:51:34.611Z,99.90
2018-06-03T06:56:09.326Z,99.90
2018-06-03T07:00:43.871Z,99.90
2018-06-03T07:05:18.133Z,99.90
2018-06-03T07:09:52.334Z,99.90
2018-06-03T07:14:26.672Z,99.90
2018-06-03T07:19:00.935Z,99.90
2018-06-03T07:23:35.313Z,99.90
2018-06-03T07:28:09.531Z,99.90
2018-06-03T07:32:44.121Z,99.90
2018-06-03T07:37:18.461Z,99.90
2018-06-03T07:41:52.820Z,99.90
2018-06-03T07:46:27.313Z,99.90
2018-06-03T07:51:01.575Z,99.90
2018-06-03T07:55:36.110Z,99.60
2018-06-03T08:00:10.649Z,99.80
2018-06-03T08:04:45.035Z,99.00
2018-06-03T08:09:20.443Z,98.30
2018-06-03T08:13:55.426Z,97.00
2018-06-03T08:18:29.783Z,95.50
2018-06-03T08:23:04.401Z,95.00
2018-06-03T08:27:38.893Z,94.70
2018-06-03T08:32:14.643Z,94.40
2018-06-03T08:36:49.152Z,92.30
2018-06-03T08:45:57.345Z,75.00
2018-06-03T08:50:39.012Z,73.10
2018-06-03T08:55:13.705Z,69.30
2018-06-03T08:59:50.371Z,62.00
2018-06-03T09:04:39.756Z,59.40
2018-06-03T09:09:14.073Z,59.10
2018-06-03T09:13:48.702Z,53.20
2018-06-03T09:18:23.049Z,50.90
2018-06-03T09:22:58.656Z,49.80
2018-06-03T09:27:33.038Z,48.20
2018-06-03T09:32:08.059Z,47.60
2018-06-03T09:36:42.821Z,46.50
2018-06-03T09:45:51.814Z,45.70
2018-06-03T09:50:27.532Z,45.00
2018-06-03T09:55:02.871Z,45.10
2018-06-03T09:59:37.486Z,42.70
2018-06-03T10:04:12.230Z,42.70
2018-06-03T10:08:54.619Z,42.90
2018-06-03T10:13:29.346Z,43.20
2018-06-03T10:18:04.054Z,40.30
2018-06-03T10:22:38.534Z,40.20
2018-06-03T10:27:13.360Z,40.70
2018-06-03T10:31:47.881Z,41.80
2018-06-03T10:36:22.131Z,43.90
2018-06-03T10:40:56.434Z,41.90
2018-06-03T10:45:31.031Z,42.70
2018-06-03T10:50:05.494Z,41.90
2018-06-03T10:54:39.941Z,41.80
2018-06-03T10:59:14.334Z,40.60
2018-06-03T11:03:49.293Z,40.30
2018-06-03T11:08:23.715Z,41.10
2018-06-03T11:12:58.034Z,42.00
2018-06-03T11:17:32.684Z,41.80
2018-06-03T11:22:07.239Z,42.00
2018-06-03T11:26:42.213Z,41.40
2018-06-03T11:31:18.205Z,42.40
2018-06-03T11:35:52.842Z,40.60
2018-06-03T11:40:27.272Z,39.10
2018-06-03T11:45:01.700Z,37.60
2018-06-03T11:49:36.218Z,38.00
2018-06-03T11:54:10.853Z,37.20
2018-06-03T11:58:52.483Z,40.50
2018-06-03T12:03:26.897Z,38.50
2018-06-03T12:08:01.260Z,37.50
2018-06-03T12:12:35.881Z,39.40
2018-06-03T12:17:10.498Z,40.90
2018-06-03T12:21:44.836Z,40.50
2018-06-03T12:26:19.230Z,40.40
2018-06-03T12:30:53.887Z,38.00
2018-06-03T12:35:28.281Z,37.00
2018-06-03T12:40:03.374Z,36.00
2018-06-03T12:49:11.818Z,36.00
2018-06-03T12:58:20.328Z,37.30
2018-06-03T13:02:54.948Z,41.70
2018-06-03T13:07:29.521Z,40.60
2018-06-03T13:12:04.163Z,38.90
2018-06-03T13:16:38.866Z,38.50
2018-06-03T13:21:14.299Z,39.40
2018-06-03T13:25:49.813Z,38.80
2018-06-03T13:30:24.454Z,39.60
2018-06-03T13:35:00.007Z,41.70
2018-06-03T13:39:34.540Z,44.60
2018-06-03T13:44:09.073Z,43.70
2018-06-03T13:48:43.272Z,45.10
2018-06-03T13:53:17.758Z,46.20
2018-06-03T13:57:51.927Z,44.90
2018-06-03T14:02:26.386Z,44.10
2018-06-03T14:07:00.891Z,44.70
2018-06-03T14:11:35.202Z,47.70
2018-06-03T14:16:09.574Z,48.10
2018-06-03T14:20:50.547Z,48.70
2018-06-03T14:25:26.187Z,49.40
2018-06-03T14:30:00.816Z,49.80
2018-06-03T14:34:35.166Z,49.20
2018-06-03T14:39:10.115Z,49.40
2018-06-03T14:43:44.440Z,48.20
2018-06-03T14:48:18.881Z,48.50
2018-06-03T14:52:53.433Z,48.90
2018-06-03T14:57:27.646Z,48.40
2018-06-03T15:02:02.051Z,49.50
2018-06-03T15:06:36.374Z,48.00
2018-06-03T15:11:11.871Z,47.90
2018-06-03T15:15:46.349Z,46.70
2018-06-03T15:20:20.939Z,47.40
2018-06-03T15:24:55.317Z,47.40
2018-06-03T15:29:31.159Z,48.90
2018-06-03T15:34:05.932Z,47.40
2018-06-03T15:38:41.647Z,45.70
2018-06-03T15:43:16.172Z,45.90
2018-06-03T15:47:50.713Z,44.60
2018-06-03T15:52:25.271Z,43.70
2018-06-03T15:57:00.903Z,45.40
2018-06-03T16:01:35.396Z,46.10
2018-06-03T16:06:10.277Z,47.30
2018-06-03T16:10:45.786Z,46.70
2018-06-03T16:15:20.783Z,47.40
2018-06-03T16:29:11.996Z,49.00
2018-06-03T16:33:48.266Z,49.00
2018-06-03T16:38:25.003Z,49.10
2018-06-03T16:43:02.149Z,50.20
2018-06-03T16:47:42.228Z,50.00
2018-06-03T16:52:19.986Z,51.50
2018-06-03T16:56:56.702Z,52.90
2018-06-03T17:01:33.158Z,53.10
2018-06-03T17:06:10.082Z,53.60
2018-06-03T17:10:46.316Z,54.10
2018-06-03T17:15:23.940Z,52.50
2018-06-03T17:19:59.242Z,50.50
2018-06-03T17:24:33.601Z,51.70
2018-06-03T17:29:09.838Z,54.00
2018-06-03T17:33:44.354Z,56.30
2018-06-03T17:38:18.753Z,57.10
2018-06-03T17:42:52.951Z,60.40
2018-06-03T17:47:27.317Z,60.10
2018-06-03T17:52:01.732Z,57.90
2018-06-03T17:56:35.931Z,58.40
2018-06-03T18:01:13.751Z,59.80
2018-06-03T18:05:48.225Z,60.10
2018-06-03T18:10:22.458Z,60.90
2018-06-03T18:14:57.322Z,60.90
2018-06-03T18:19:31.895Z,61.30
2018-06-03T18:24:06.466Z,63.50
2018-06-03T18:28:40.796Z,65.40
2018-06-03T18:33:15.218Z,66.40
2018-06-03T18:37:49.531Z,66.80
2018-06-03T18:46:57.684Z,72.90
2018-06-03T18:51:32.165Z,78.20
2018-06-03T18:56:06.516Z,82.30
2018-06-03T19:00:40.787Z,84.10
2018-06-03T19:05:15.078Z,83.70
2018-06-03T19:09:54.313Z,83.40
2018-06-03T19:14:29.703Z,86.90
2018-06-03T19:19:04.177Z,91.90
2018-06-03T19:23:38.516Z,93.50
2018-06-03T19:28:12.907Z,94.70
2018-06-03T19:32:47.229Z,95.50
2018-06-03T19:37:21.406Z,96.40
2018-06-03T19:41:55.946Z,97.00
2018-06-03T19:46:30.159Z,97.60
2018-06-03T19:51:05.544Z,97.90
2018-06-03T19:55:39.803Z,98.10
2018-06-03T20:00:15.024Z,98.30
2018-06-03T20:04:49.647Z,98.70
2018-06-03T20:09:24.234Z,99.00
2018-06-03T20:13:58.709Z,99.40
2018-06-03T20:18:33.276Z,99.60
2018-06-03T20:23:07.942Z,99.90
2018-06-03T20:27:42.355Z,99.90
2018-06-03T20:32:16.944Z,99.90
2018-06-03T20:36:51.848Z,99.90
2018-06-03T20:41:26.546Z,99.90
2018-06-03T20:46:00.870Z,99.90
2018-06-03T20:55:09.901Z,99.90
2018-06-03T20:59:44.389Z,99.90
2018-06-03T21:08:52.729Z,99.90
2018-06-03T21:13:27.513Z,99.90
2018-06-03T21:18:02.253Z,99.90
2018-06-03T21:22:36.858Z,99.90
2018-06-03T21:31:45.381Z,99.90
2018-06-03T21:36:19.879Z,99.90
2018-06-03T21:40:54.478Z,99.90
2018-06-03T21:45:29.066Z,99.90
2018-06-03T21:50:03.358Z,99.90
2018-06-03T21:54:37.629Z,99.90
2018-06-03T21:59:12.017Z,99.90
2018-06-03T22:03:46.193Z,99.90
2018-06-03T22:08:20.739Z,99.90
2018-06-03T22:12:55.517Z,99.90
2018-06-03T22:17:30.027Z,99.90
2018-06-03T22:22:04.506Z,99.90
2018-06-03T22:26:39.094Z,99.90
2018-06-03T22:31:13.318Z,99.90
2018-06-03T22:35:47.705Z,99.90
2018-06-03T22:40:22.386Z,99.90
2018-06-03T22:44:57.038Z,99.90
2018-06-03T22:49:31.486Z,99.90
2018-06-03T22:54:06.573Z,99.90
2018-06-03T22:58:41.062Z,99.90
2018-06-03T23:03:16.831Z,99.90
2018-06-03T23:07:52.188Z,99.90
2018-06-03T23:12:26.386Z,99.90
2018-06-03T23:17:00.657Z,99.90
2018-06-03T23:21:34.965Z,99.90
2018-06-03T23:26:09.415Z,99.90
2018-06-03T23:30:43.782Z,99.90
2018-06-03T23:35:18.198Z,99.90
2018-06-03T23:39:52.732Z,99.90
2018-06-03T23:44:26.954Z,99.90
2018-06-03T23:49:01.427Z,99.90
2018-06-03T23:53:36.091Z,99.90
